Time;durP1;ratioP1;P1;durP2;ratioP2;P2;SDS_P1;SDS_P2;PMS_P1;PMS_P2;Temp;Humidity;BMP_temperature;BMP_pressure;BME280_temperature;BME280_humidity;BME280_pressure;Samples;Min_cycle;Max_cycle;Signal;HPM_P1;HPM_P2
2023/12/26 00:01:46;;;;;;;5.87;2.20;;;;;;;9.08;100.00;100490.69;5098595;28;20042;-88
2023/12/26 00:04:12;;;;;;;9.05;2.38;;;;;;;9.09;100.00;100492.34;5080777;28;20104;-87
2023/12/26 00:06:38;;;;;;;4.07;1.87;;;;;;;9.10;100.00;100488.59;5080762;28;20039;-87
2023/12/26 00:09:04;;;;;;;6.95;2.42;;;;;;;9.09;100.00;100489.66;5097934;28;20055;-88
2023/12/26 00:11:30;;;;;;;7.60;2.83;;;;;;;9.05;100.00;100501.09;5115892;28;20576;-88
2023/12/26 00:13:55;;;;;;;6.65;2.85;;;;;;;9.05;100.00;100496.53;5064393;28;20417;-88
2023/12/26 00:16:21;;;;;;;6.87;2.70;;;;;;;9.02;100.00;100498.81;5097534;28;20036;-87
2023/12/26 00:18:47;;;;;;;5.90;2.20;;;;;;;9.04;100.00;100524.63;5097501;28;20389;-87
2023/12/26 00:21:12;;;;;;;9.15;2.90;;;;;;;9.00;100.00;100500.91;5097554;28;20035;-88
2023/12/26 00:23:37;;;;;;;9.57;2.23;;;;;;;8.99;100.00;100499.25;5097097;28;20031;-88
2023/12/26 00:26:04;;;;;;;7.00;1.87;;;;;;;9.00;100.00;100509.03;5115292;28;20038;-87
2023/12/26 00:28:29;;;;;;;6.97;1.90;;;;;;;9.00;100.00;100485.50;5080338;28;20084;-88
2023/12/26 00:30:55;;;;;;;5.47;2.20;;;;;;;8.98;100.00;100476.78;5080126;28;20032;-87
2023/12/26 00:33:20;;;;;;;8.07;2.00;;;;;;;8.93;100.00;100498.22;5097313;28;20084;-88
2023/12/26 00:35:46;;;;;;;8.05;2.25;;;;;;;8.90;100.00;100485.13;5096923;28;20384;-87
2023/12/26 00:38:11;;;;;;;6.77;2.07;;;;;;;8.88;100.00;100501.56;5096709;28;20042;-88
2023/12/26 00:40:41;;;;;;;4.00;1.63;;;;;;;8.90;100.00;100507.59;5114350;28;20371;-88
2023/12/26 00:43:07;;;;;;;7.18;2.58;;;;;;;8.90;100.00;100493.22;5064330;28;20038;-88
2023/12/26 00:45:32;;;;;;;8.80;2.53;;;;;;;8.88;100.00;100498.84;5097161;28;20131;-87
2023/12/26 00:47:58;;;;;;;6.73;1.87;;;;;;;8.86;100.00;100506.38;5096724;28;20063;-87
2023/12/26 00:50:23;;;;;;;5.07;1.93;;;;;;;8.90;100.00;100504.91;5096942;28;20116;-87
2023/12/26 00:52:48;;;;;;;4.83;1.77;;;;;;;8.88;100.00;100528.63;5114764;28;20028;-88
2023/12/26 00:55:14;;;;;;;4.35;1.35;;;;;;;8.87;100.00;100513.44;5097144;28;20027;-87
2023/12/26 00:57:40;;;;;;;6.90;1.73;;;;;;;8.86;100.00;100535.28;5096913;28;20468;-87
2023/12/26 01:00:07;;;;;;;6.40;1.83;;;;;;;8.86;100.00;100514.47;5096651;28;20441;-87
2023/12/26 01:02:32;;;;;;;7.30;1.55;;;;;;;8.85;100.00;100514.69;5096909;28;20071;-87
2023/12/26 01:05:00;;;;;;;6.17;1.70;;;;;;;8.87;100.00;100521.56;5114013;28;20165;-87
2023/12/26 01:07:26;;;;;;;6.70;1.92;;;;;;;8.85;100.00;100520.94;5079700;28;20044;-87
2023/12/26 01:09:51;;;;;;;5.80;1.80;;;;;;;8.82;100.00;100515.94;5096941;28;20043;-87
2023/12/26 01:12:18;;;;;;;7.25;2.00;;;;;;;8.83;100.00;100528.44;5114727;28;20059;-87
2023/12/26 01:14:43;;;;;;;3.88;1.48;;;;;;;8.82;100.00;100523.25;5114883;28;20028;-87
2023/12/26 01:17:09;;;;;;;3.50;1.53;;;;;;;8.85;100.00;100512.81;5114299;28;20034;-88
2023/12/26 01:19:34;;;;;;;8.43;1.40;;;;;;;8.83;100.00;100524.88;5114475;28;20020;-87
2023/12/26 01:22:00;;;;;;;4.00;1.45;;;;;;;8.86;100.00;100519.03;5113236;28;20813;-87
2023/12/26 01:24:25;;;;;;;2.83;1.60;;;;;;;8.84;100.00;100511.13;5096243;28;20028;-87
2023/12/26 01:26:51;;;;;;;2.93;1.57;;;;;;;8.86;100.00;100513.63;5096425;28;20024;-87
2023/12/26 01:29:16;;;;;;;7.13;2.73;;;;;;;8.87;100.00;100532.38;5095793;28;20067;-87
2023/12/26 01:31:42;;;;;;;5.97;2.13;;;;;;;8.86;100.00;100524.44;5114351;28;20077;-87
2023/12/26 01:34:07;;;;;;;10.07;2.83;;;;;;;8.84;100.00;100524.66;5113096;28;20039;-87
2023/12/26 01:36:33;;;;;;;6.23;2.90;;;;;;;8.89;100.00;100540.28;5096401;28;20107;-88
2023/12/26 01:38:58;;;;;;;8.18;3.00;;;;;;;8.82;100.00;100556.53;5096103;28;20024;-88
2023/12/26 01:41:24;;;;;;;7.67;2.67;;;;;;;8.83;100.00;100541.97;5079418;28;20036;-88
2023/12/26 01:43:50;;;;;;;7.80;2.97;;;;;;;8.83;100.00;100541.97;5114250;28;20027;-88
2023/12/26 01:46:19;;;;;;;8.00;3.42;;;;;;;8.84;100.00;100553.59;5114266;28;20597;-88
2023/12/26 01:48:47;;;;;;;6.55;3.17;;;;;;;8.87;100.00;100556.75;5113820;28;20028;-88
2023/12/26 01:51:14;;;;;;;9.52;3.55;;;;;;;8.84;100.00;100535.50;5113842;28;20110;-88
2023/12/26 01:53:40;;;;;;;11.88;3.83;;;;;;;8.86;100.00;100551.50;5113606;28;20027;-88
2023/12/26 01:56:10;;;;;;;11.82;3.90;;;;;;;8.84;100.00;100553.59;5079534;28;20047;-87
2023/12/26 01:58:37;;;;;;;10.18;3.50;;;;;;;8.88;100.00;100582.72;5095770;28;20015;-88
2023/12/26 02:01:04;;;;;;;12.43;3.30;;;;;;;8.90;100.00;100563.56;5095762;28;20035;-88
2023/12/26 02:03:30;;;;;;;8.95;3.42;;;;;;;8.87;100.00;100575.69;5114004;28;20072;-88
2023/12/26 02:05:57;;;;;;;11.68;3.47;;;;;;;8.85;100.00;100572.34;5095204;28;20032;-88
2023/12/26 02:08:23;;;;;;;8.52;2.95;;;;;;;8.85;100.00;100572.34;5113921;28;20091;-88
2023/12/26 02:10:49;;;;;;;6.22;2.60;;;;;;;8.87;100.00;100578.38;5095961;28;20080;-88
2023/12/26 02:13:14;;;;;;;6.77;2.43;;;;;;;8.86;100.00;100574.00;5078724;28;20027;-87
2023/12/26 02:15:40;;;;;;;6.53;2.80;;;;;;;8.85;100.00;100577.75;5095665;28;20489;-88
2023/12/26 02:18:06;;;;;;;6.53;2.65;;;;;;;8.85;100.00;100577.75;5095568;28;20042;-88
2023/12/26 02:20:31;;;;;;;8.00;2.80;;;;;;;8.84;100.00;100573.38;5078987;28;20039;-88
2023/12/26 02:22:56;;;;;;;9.27;3.20;;;;;;;8.85;100.00;100566.09;5095773;28;20077;-88
2023/12/26 02:25:23;;;;;;;8.48;3.00;;;;;;;8.87;100.00;100577.53;5095845;28;20062;-88
2023/12/26 02:27:49;;;;;;;8.13;3.90;;;;;;;8.85;100.00;100585.84;5112343;28;20407;-88
2023/12/26 02:30:15;;;;;;;6.97;2.95;;;;;;;8.88;100.00;100577.31;5112497;28;20026;-87
2023/12/26 02:32:43;;;;;;;6.50;3.95;;;;;;;8.88;100.00;100590.03;5095477;28;20020;-87
2023/12/26 02:35:08;;;;;;;11.02;3.25;;;;;;;8.89;100.00;100591.69;5113745;28;20023;-87
2023/12/26 02:37:34;;;;;;;6.40;2.80;;;;;;;8.86;100.00;100590.25;5078590;28;20035;-87
2023/12/26 02:40:01;;;;;;;6.55;3.10;;;;;;;8.87;100.00;100594.63;5113722;28;20027;-88
2023/12/26 02:42:29;;;;;;;5.50;2.72;;;;;;;8.89;100.00;100570.06;5095373;28;20464;-88
2023/12/26 02:44:56;;;;;;;11.90;4.18;;;;;;;8.86;100.00;100586.69;5095828;28;20032;-88
2023/12/26 02:47:21;;;;;;;7.03;2.90;;;;;;;8.90;100.00;100596.03;5113448;28;20156;-87
2023/12/26 02:49:47;;;;;;;11.65;4.10;;;;;;;8.88;100.00;100585.44;5095003;28;20076;-88
2023/12/26 02:52:12;;;;;;;8.97;3.43;;;;;;;8.87;100.00;100581.09;5078564;28;20038;-88
2023/12/26 02:54:37;;;;;;;8.70;3.83;;;;;;;8.88;100.00;100582.72;5096061;28;20038;-88
2023/12/26 02:57:03;;;;;;;9.50;3.73;;;;;;;8.90;100.00;100602.31;5096064;28;20110;-88
2023/12/26 02:59:29;;;;;;;11.07;4.00;;;;;;;8.88;100.00;100593.56;5079065;28;20036;-87
2023/12/26 03:01:54;;;;;;;11.43;4.53;;;;;;;8.88;100.00;100596.25;5113665;28;20456;-87
2023/12/26 03:04:20;;;;;;;11.73;4.60;;;;;;;8.87;100.00;100589.22;5112930;28;20040;-87
2023/12/26 03:06:45;;;;;;;15.85;5.03;;;;;;;8.88;100.00;100603.56;5099469;28;20039;-87
2023/12/26 03:09:11;;;;;;;15.00;5.63;;;;;;;8.89;100.00;100622.28;5082061;28;20062;-87
2023/12/26 03:11:36;;;;;;;18.23;7.20;;;;;;;8.89;100.00;100630.41;5098689;28;20387;-88
2023/12/26 03:14:02;;;;;;;24.50;7.00;;;;;;;8.83;100.00;100620.41;5117033;28;20047;-87
2023/12/26 03:16:28;;;;;;;16.77;6.28;;;;;;;8.79;100.00;100632.69;5117241;28;20032;-87
2023/12/26 03:18:53;;;;;;;20.55;7.13;;;;;;;8.76;100.00;100625.81;5116832;28;20093;-87
2023/12/26 03:21:20;;;;;;;23.03;6.43;;;;;;;8.72;100.00;100635.38;5082242;28;20032;-88
2023/12/26 03:23:46;;;;;;;20.55;7.00;;;;;;;8.69;100.00;100632.28;5081852;28;20035;-87
2023/12/26 03:26:11;;;;;;;20.10;6.07;;;;;;;8.66;100.00;100630.81;5082262;28;20027;-87
2023/12/26 03:28:36;;;;;;;24.40;6.97;;;;;;;8.66;100.00;100659.75;5116989;28;20413;-87
2023/12/26 03:31:02;;;;;;;21.27;6.40;;;;;;;8.64;100.00;100646.44;5098132;28;20082;-83
2023/12/26 03:33:28;;;;;;;27.40;6.55;;;;;;;8.64;100.00;100648.31;5115310;28;20019;-83
2023/12/26 03:35:54;;;;;;;23.25;6.50;;;;;;;8.63;100.00;100638.53;5098535;28;20027;-83
2023/12/26 03:38:19;;;;;;;26.70;7.13;;;;;;;8.63;100.00;100644.75;5116471;28;20467;-82
2023/12/26 03:40:45;;;;;;;22.33;6.80;;;;;;;8.60;100.00;100645.19;5098280;28;20375;-87
2023/12/26 03:43:10;;;;;;;20.10;5.65;;;;;;;8.60;100.00;100639.75;5097981;28;20046;-83
2023/12/26 03:45:36;;;;;;;23.47;6.17;;;;;;;8.62;100.00;100650.38;5081333;28;20034;-83
2023/12/26 03:48:02;;;;;;;21.47;5.37;;;;;;;8.63;100.00;100639.34;5098902;28;20047;-83
2023/12/26 03:50:27;;;;;;;16.35;4.78;;;;;;;8.62;100.00;100651.19;5114984;28;20454;-83
2023/12/26 03:52:53;;;;;;;19.40;5.30;;;;;;;8.62;100.00;100653.91;5098218;28;20059;-83
2023/12/26 03:55:18;;;;;;;21.10;5.22;;;;;;;8.61;100.00;100649.56;5116211;28;20372;-83
2023/12/26 03:57:44;;;;;;;16.93;4.90;;;;;;;8.62;100.00;100666.59;5097799;28;20042;-83
2023/12/26 04:00:10;;;;;;;16.97;4.53;;;;;;;8.62;100.00;100670.13;5080895;28;20039;-83
2023/12/26 04:02:36;;;;;;;19.35;4.50;;;;;;;8.63;100.00;100687.22;5080769;28;20031;-83
2023/12/26 04:05:02;;;;;;;20.03;4.63;;;;;;;8.63;100.00;100687.22;5116079;28;20028;-83
2023/12/26 04:07:28;;;;;;;17.55;4.53;;;;;;;8.60;100.00;100675.75;5097784;28;20200;-83
2023/12/26 04:09:53;;;;;;;17.00;4.50;;;;;;;8.59;100.00;100692.19;5116244;28;20043;-83
2023/12/26 04:12:19;;;;;;;17.50;4.33;;;;;;;8.59;100.00;100719.22;5080755;28;20111;-83
2023/12/26 04:14:45;;;;;;;13.02;3.65;;;;;;;8.58;100.00;100707.59;5097463;28;20539;-83
2023/12/26 04:17:10;;;;;;;19.23;4.40;;;;;;;8.59;100.00;100719.22;5097547;28;20065;-84
2023/12/26 04:19:36;;;;;;;18.83;4.13;;;;;;;8.60;100.00;100712.78;5097153;28;20376;-83
2023/12/26 04:22:01;;;;;;;21.45;3.80;;;;;;;8.62;100.00;100704.47;5097250;28;20035;-83
2023/12/26 04:24:26;;;;;;;16.30;3.03;;;;;;;8.60;100.00;100708.19;5115595;28;20031;-83
2023/12/26 04:26:52;;;;;;;18.63;2.77;;;;;;;8.59;100.00;100708.41;5114033;28;20046;-83
2023/12/26 04:29:17;;;;;;;21.47;2.57;;;;;;;8.52;100.00;100699.44;5080684;28;20031;-83
2023/12/26 04:31:43;;;;;;;11.30;1.90;;;;;;;8.52;100.00;100713.81;5080288;28;20467;-83
2023/12/26 04:34:08;;;;;;;16.88;2.72;;;;;;;8.45;100.00;100696.75;5097282;28;20285;-83
2023/12/26 04:36:37;;;;;;;13.03;2.00;;;;;;;8.42;100.00;100724.16;5097515;28;20078;-83
2023/12/26 04:39:04;;;;;;;13.45;2.47;;;;;;;8.40;100.00;100718.09;5097583;28;20038;-83
2023/12/26 04:41:30;;;;;;;15.60;2.23;;;;;;;8.38;100.00;100720.19;5080300;28;20035;-84
2023/12/26 04:43:55;;;;;;;15.63;1.85;;;;;;;8.36;100.00;100722.28;5097310;28;20478;-84
2023/12/26 04:46:20;;;;;;;10.07;1.73;;;;;;;8.32;100.00;100724.53;5080597;28;20056;-84
2023/12/26 04:48:46;;;;;;;11.77;1.60;;;;;;;8.26;100.00;100730.75;5097460;28;20059;-84
2023/12/26 04:51:16;;;;;;;14.63;1.30;;;;;;;8.22;100.00;100737.59;5096904;28;20028;-84
2023/12/26 04:53:43;;;;;;;18.70;1.80;;;;;;;8.16;100.00;100733.03;5114577;28;20484;-84
2023/12/26 04:56:08;;;;;;;14.20;1.42;;;;;;;8.11;100.00;100736.31;5096803;28;20078;-84
2023/12/26 04:58:33;;;;;;;14.30;1.50;;;;;;;8.07;100.00;100732.34;5079709;28;20130;-84
2023/12/26 05:00:59;;;;;;;14.00;1.60;;;;;;;8.03;100.00;100753.56;5096563;28;20031;-84
2023/12/26 05:03:25;;;;;;;10.60;2.00;;;;;;;7.96;100.00;100760.78;5113933;28;20039;-83
2023/12/26 05:05:51;;;;;;;18.77;1.90;;;;;;;7.92;100.00;100773.03;5114858;28;20028;-83
2023/12/26 05:08:16;;;;;;;13.50;1.83;;;;;;;7.92;100.00;100777.59;5096272;28;20055;-84
2023/12/26 05:10:42;;;;;;;23.60;2.30;;;;;;;7.89;100.00;100782.34;5096119;28;20043;-83
2023/12/26 05:13:11;;;;;;;26.30;2.77;;;;;;;7.88;100.00;100790.66;5079572;28;20028;-84
2023/12/26 05:15:36;;;;;;;18.42;2.00;;;;;;;7.85;100.00;100777.56;5096633;28;20031;-84
2023/12/26 05:18:03;;;;;;;10.00;1.33;;;;;;;7.86;100.00;100798.97;5096243;28;20032;-84
2023/12/26 05:20:31;;;;;;;12.50;1.67;;;;;;;7.77;100.00;100789.34;5114574;28;20024;-84
2023/12/26 05:22:57;;;;;;;10.90;1.77;;;;;;;7.73;100.00;100796.19;5114241;28;20061;-85
2023/12/26 05:25:23;;;;;;;17.63;1.77;;;;;;;7.71;100.00;100798.25;5096594;28;20031;-84
2023/12/26 05:27:48;;;;;;;10.60;1.60;;;;;;;7.72;100.00;100813.41;5095469;28;20028;-84
2023/12/26 05:30:14;;;;;;;14.13;1.23;;;;;;;7.69;100.00;100814.66;5079158;28;20043;-84
2023/12/26 05:32:40;;;;;;;19.70;2.13;;;;;;;7.67;100.00;100816.72;5096562;28;20020;-84
2023/12/26 05:35:06;;;;;;;17.27;2.00;;;;;;;7.64;100.00;100822.50;5096615;28;20019;-83
2023/12/26 05:37:31;;;;;;;17.73;2.20;;;;;;;7.63;100.00;100825.41;5096449;28;20084;-83
2023/12/26 05:39:56;;;;;;;11.37;1.23;;;;;;;7.59;100.00;100841.19;5079664;28;20035;-84
2023/12/26 05:42:23;;;;;;;15.70;1.07;;;;;;;7.54;100.00;100830.13;5079187;28;20039;-83
2023/12/26 05:44:49;;;;;;;10.15;1.50;;;;;;;7.46;100.00;100822.19;5096295;28;20036;-84
2023/12/26 05:47:14;;;;;;;17.83;1.38;;;;;;;7.44;100.00;100838.56;5079061;28;20429;-84
2023/12/26 05:49:40;;;;;;;15.40;1.10;;;;;;;7.41;100.00;100847.06;5095801;28;20115;-83
2023/12/26 05:52:05;;;;;;;13.33;1.20;;;;;;;7.32;100.00;100850.91;5114173;28;20059;-84
2023/12/26 05:54:31;;;;;;;12.77;1.03;;;;;;;7.28;100.00;100863.09;5079813;28;20040;-84
2023/12/26 05:56:56;;;;;;;17.90;1.17;;;;;;;7.23;100.00;100879.88;5079353;28;20356;-84
2023/12/26 05:59:22;;;;;;;17.53;1.20;;;;;;;7.17;100.00;100888.75;5114197;28;20027;-84
2023/12/26 06:01:47;;;;;;;25.57;1.83;;;;;;;7.12;100.00;100883.09;5078885;28;20042;-84
2023/12/26 06:04:13;;;;;;;9.25;1.23;;;;;;;7.13;100.00;100885.63;5078990;28;20024;-84
2023/12/26 06:06:38;;;;;;;13.33;1.43;;;;;;;7.08;100.00;100904.22;5095540;28;20059;-84
2023/12/26 06:09:04;;;;;;;12.03;1.10;;;;;;;7.00;100.00;100886.31;5078366;28;20047;-84
2023/12/26 06:11:32;;;;;;;13.57;1.40;;;;;;;6.96;100.00;100898.50;5114271;28;20528;-84
2023/12/26 06:13:57;;;;;;;10.50;1.00;;;;;;;6.84;100.00;100884.66;5078854;28;20039;-84
2023/12/26 06:16:23;;;;;;;11.83;0.97;;;;;;;6.80;100.00;100898.72;5096102;28;20035;-84
2023/12/26 06:18:48;;;;;;;10.73;1.10;;;;;;;6.75;100.00;100901.16;5095944;28;20425;-84
2023/12/26 06:21:14;;;;;;;12.98;0.95;;;;;;;6.70;100.00;100907.09;5095686;28;20374;-84
2023/12/26 06:23:42;;;;;;;10.47;0.90;;;;;;;6.65;100.00;100918.44;5078803;28;20454;-84
2023/12/26 06:26:10;;;;;;;10.80;1.00;;;;;;;6.58;100.00;100938.25;5096699;28;20363;-84
2023/12/26 06:28:36;;;;;;;9.03;0.73;;;;;;;6.51;100.00;100935.50;5113553;28;20028;-84
2023/12/26 06:31:01;;;;;;;13.45;0.98;;;;;;;6.46;100.00;100941.41;5078499;28;20118;-84
2023/12/26 06:33:29;;;;;;;12.23;1.10;;;;;;;6.45;100.00;100947.84;5079043;28;20028;-84
2023/12/26 06:35:55;;;;;;;11.27;1.23;;;;;;;6.44;100.00;100956.13;5095456;28;20036;-84
2023/12/26 06:38:20;;;;;;;14.27;0.80;;;;;;;6.45;100.00;100955.09;5096352;28;20084;-84
2023/12/26 06:40:46;;;;;;;13.37;1.40;;;;;;;6.45;100.00;100961.34;5066272;28;20118;-84
2023/12/26 06:43:16;;;;;;;12.50;0.90;;;;;;;6.47;100.00;100956.56;5099043;28;20483;-84
2023/12/26 06:45:42;;;;;;;8.18;0.80;;;;;;;6.48;100.00;100947.47;5066601;28;20051;-84
2023/12/26 06:48:07;;;;;;;17.27;1.37;;;;;;;6.50;100.00;100944.59;5082359;28;20028;-84
2023/12/26 06:50:33;;;;;;;13.37;1.00;;;;;;;6.46;100.00;100954.06;5082241;28;20035;-84
2023/12/26 06:52:58;;;;;;;9.68;0.77;;;;;;;6.44;100.00;100959.66;5099108;28;20034;-84
2023/12/26 06:55:24;;;;;;;16.93;1.23;;;;;;;6.40;100.00;100958.34;5099197;28;20020;-83
2023/12/26 06:57:49;;;;;;;14.80;1.50;;;;;;;6.39;100.00;100945.91;5098951;28;20511;-84
2023/12/26 07:00:17;;;;;;;13.95;1.42;;;;;;;6.37;100.00;100955.19;5117198;28;20455;-84
2023/12/26 07:02:43;;;;;;;19.58;1.45;;;;;;;6.35;100.00;100976.94;5099607;28;20059;-84
2023/12/26 07:05:11;;;;;;;7.05;1.20;;;;;;;6.38;100.00;100960.41;5098486;28;20522;-84
2023/12/26 07:07:37;;;;;;;13.73;0.80;;;;;;;6.38;100.00;100973.88;5082549;28;20035;-84
2023/12/26 07:10:02;;;;;;;14.70;1.07;;;;;;;6.36;100.00;100975.91;5099278;28;20108;-83
2023/12/26 07:12:28;;;;;;;13.23;0.90;;;;;;;6.37;100.00;100984.84;5098735;28;20027;-84
2023/12/26 07:14:53;;;;;;;16.45;1.00;;;;;;;6.37;100.00;100998.31;5099321;28;20401;-84
2023/12/26 07:17:18;;;;;;;13.47;1.10;;;;;;;6.34;100.00;101015.69;5081746;28;20035;-84
2023/12/26 07:19:44;;;;;;;12.80;1.43;;;;;;;6.28;100.00;101017.25;5098713;28;20034;-84
2023/12/26 07:22:09;;;;;;;15.37;1.23;;;;;;;6.23;100.00;101016.97;5082184;28;20028;-84
2023/12/26 07:24:35;;;;;;;14.77;1.33;;;;;;;6.22;100.00;101027.94;5116762;28;20019;-84
2023/12/26 07:27:00;;;;;;;12.43;1.60;;;;;;;6.24;100.00;101025.88;5064485;28;20284;-84
2023/12/26 07:29:28;;;;;;;12.63;0.90;;;;;;;6.27;100.00;101042.50;5081647;28;20084;-84
2023/12/26 07:31:54;;;;;;;15.77;1.00;;;;;;;6.26;100.00;101032.78;5081860;28;20030;-84
2023/12/26 07:34:20;;;;;;;13.23;1.30;;;;;;;6.30;100.00;101041.31;5115183;28;20110;-84
2023/12/26 07:36:45;;;;;;;9.77;1.17;;;;;;;6.36;100.00;101040.56;5082036;28;20745;-84
2023/12/26 07:39:14;;;;;;;14.87;1.30;;;;;;;6.40;100.00;101039.19;5081317;28;20436;-85
2023/12/26 07:41:39;;;;;;;13.70;1.52;;;;;;;6.44;100.00;101039.69;5081491;28;20081;-84
2023/12/26 07:44:07;;;;;;;14.57;1.00;;;;;;;6.49;100.00;101045.34;5098838;28;20024;-83
2023/12/26 07:46:33;;;;;;;8.98;1.10;;;;;;;6.49;100.00;101048.88;5081451;28;20130;-84
2023/12/26 07:48:58;;;;;;;16.60;1.27;;;;;;;6.49;100.00;101062.34;5098136;28;20454;-84
2023/12/26 07:51:24;;;;;;;16.80;1.37;;;;;;;6.44;100.00;101063.94;5081341;28;20034;-83
2023/12/26 07:53:49;;;;;;;9.48;1.13;;;;;;;6.41;100.00;101069.69;5098480;28;20028;-84
2023/12/26 07:56:15;;;;;;;12.57;1.20;;;;;;;6.44;100.00;101069.34;5081392;28;20031;-86
2023/12/26 07:58:40;;;;;;;8.80;0.90;;;;;;;6.37;100.00;101085.38;5097461;28;20126;-85
2023/12/26 08:01:05;;;;;;;15.33;1.20;;;;;;;6.38;100.00;101078.97;5097708;28;20028;-85
2023/12/26 08:03:31;;;;;;;15.77;1.42;;;;;;;6.37;100.00;101089.94;5097887;28;20119;-85
2023/12/26 08:05:56;;;;;;;13.00;1.00;;;;;;;6.34;100.00;101103.78;5080806;28;20023;-83
2023/12/26 08:08:22;;;;;;;23.40;1.67;;;;;;;6.34;100.00;101091.13;5080426;28;20257;-85
2023/12/26 08:10:48;;;;;;;13.35;1.40;;;;;;;6.36;100.00;101097.16;5064233;28;20027;-84
2023/12/26 08:13:13;;;;;;;14.57;1.43;;;;;;;6.35;100.00;101111.69;5097430;28;20027;-84
2023/12/26 08:15:39;;;;;;;15.80;1.40;;;;;;;6.40;100.00;101114.66;5080774;28;20482;-83
2023/12/26 08:18:05;;;;;;;13.13;2.03;;;;;;;6.39;100.00;101104.06;5063841;28;20031;-84
2023/12/26 08:20:36;;;;;;;17.25;2.13;;;;;;;6.35;100.00;101102.75;5098109;28;20488;-84
2023/12/26 08:23:04;;;;;;;18.05;1.77;;;;;;;6.32;100.00;101102.09;5097342;28;20065;-84
2023/12/26 08:25:30;;;;;;;13.38;1.58;;;;;;;6.41;100.00;101110.13;5115974;28;20477;-84
2023/12/26 08:27:55;;;;;;;13.30;1.25;;;;;;;6.49;100.00;101120.81;5115517;28;20110;-84
2023/12/26 08:30:21;;;;;;;15.80;2.30;;;;;;;6.44;100.00;101112.47;5097013;28;20027;-84
2023/12/26 08:32:46;;;;;;;17.13;1.60;;;;;;;6.43;100.00;101124.25;5080237;28;20028;-84
2023/12/26 08:35:12;;;;;;;9.67;1.27;;;;;;;6.49;100.00;101137.00;5115152;28;20036;-83
2023/12/26 08:37:37;;;;;;;19.60;1.90;;;;;;;6.55;100.00;101133.56;5080109;28;20458;-84
2023/12/26 08:40:03;;;;;;;9.85;1.48;;;;;;;6.57;100.00;101150.41;5113944;28;20046;-84
2023/12/26 08:42:29;;;;;;;17.20;1.40;;;;;;;6.52;100.00;101158.19;5115426;28;20035;-84
2023/12/26 08:44:54;;;;;;;12.38;1.70;;;;;;;6.57;100.00;101177.38;5079738;28;20463;-84
2023/12/26 08:47:20;;;;;;;15.73;1.63;;;;;;;6.55;100.00;101144.34;5079905;28;20040;-84
2023/12/26 08:49:45;;;;;;;9.43;1.40;;;;;;;6.60;100.00;101174.31;5096903;28;20031;-84
2023/12/26 08:52:13;;;;;;;16.53;1.40;;;;;;;6.64;100.00;101180.19;5115058;28;20031;-84
2023/12/26 08:54:38;;;;;;;14.60;1.38;;;;;;;6.62;100.00;101183.06;5080208;28;20043;-84
2023/12/26 08:57:04;;;;;;;11.05;1.30;;;;;;;6.62;100.00;101187.63;5096984;28;20035;-84
2023/12/26 08:59:29;;;;;;;12.93;1.47;;;;;;;6.69;100.00;101180.50;5079651;28;20417;-84
2023/12/26 09:01:55;;;;;;;16.70;2.00;;;;;;;6.74;100.00;101179.94;5095696;28;20076;-84
2023/12/26 09:04:20;;;;;;;13.87;1.80;;;;;;;6.79;100.00;101172.13;5096482;28;20027;-84
2023/12/26 09:06:45;;;;;;;10.68;1.52;;;;;;;6.92;100.00;101179.59;5096579;28;20106;-85
2023/12/26 09:09:12;;;;;;;8.73;1.50;;;;;;;7.04;100.00;101183.50;5096326;28;20440;-85
2023/12/26 09:11:38;;;;;;;10.65;1.67;;;;;;;7.22;100.00;101191.28;5079768;28;20468;-84
2023/12/26 09:14:03;;;;;;;11.37;1.40;;;;;;;7.37;100.00;101202.91;5114634;28;20028;-84
2023/12/26 09:16:31;;;;;;;12.03;1.57;;;;;;;7.43;100.00;101201.34;5079416;28;20035;-84
2023/12/26 09:18:56;;;;;;;12.57;1.58;;;;;;;7.50;100.00;101199.56;5063206;28;20467;-84
2023/12/26 09:21:22;;;;;;;9.83;1.40;;;;;;;7.52;100.00;101211.00;5079505;28;20034;-85
2023/12/26 09:23:47;;;;;;;12.07;1.37;;;;;;;7.53;100.00;101206.47;5095878;28;20038;-84
2023/12/26 09:26:14;;;;;;;13.07;1.57;;;;;;;7.53;100.00;101207.31;5096677;28;20038;-85
2023/12/26 09:28:39;;;;;;;16.92;2.05;;;;;;;7.47;100.00;101218.84;5096114;28;20038;-85
2023/12/26 09:31:05;;;;;;;7.80;1.35;;;;;;;7.39;100.00;101210.84;5079867;28;20031;-84
2023/12/26 09:33:31;;;;;;;14.95;1.60;;;;;;;7.35;100.00;101229.28;5079917;28;20040;-86
2023/12/26 09:35:56;;;;;;;10.03;0.90;;;;;;;7.36;100.00;101227.41;5096079;28;20472;-85
2023/12/26 09:38:21;;;;;;;6.63;1.50;;;;;;;7.33;100.00;101242.09;5096137;28;20459;-84
2023/12/26 09:40:47;;;;;;;15.77;1.67;;;;;;;7.30;100.00;101241.63;5095793;28;20384;-84
2023/12/26 09:43:14;;;;;;;16.10;1.80;;;;;;;7.28;100.00;101255.31;5096040;28;20394;-84
2023/12/26 09:45:40;;;;;;;8.85;1.20;;;;;;;7.22;100.00;101256.06;5062711;28;20032;-84
2023/12/26 09:48:06;;;;;;;14.75;2.25;;;;;;;7.17;100.00;101261.97;5063072;28;20027;-84
2023/12/26 09:50:31;;;;;;;13.45;1.33;;;;;;;7.16;100.00;101265.72;5062292;28;20472;-84
2023/12/26 09:53:01;;;;;;;9.10;1.60;;;;;;;7.15;100.00;101272.13;5079062;28;20584;-84
2023/12/26 09:55:29;;;;;;;12.55;1.83;;;;;;;7.14;100.00;101278.53;5114015;28;20023;-84
2023/12/26 09:57:57;;;;;;;11.88;1.50;;;;;;;7.09;100.00;101280.97;5079579;28;20027;-84
2023/12/26 10:00:25;;;;;;;14.83;1.87;;;;;;;7.13;100.00;101284.97;5095752;28;20035;-84
2023/12/26 10:02:52;;;;;;;16.02;1.30;;;;;;;7.13;100.00;101281.41;5095614;28;20480;-84
2023/12/26 10:05:17;;;;;;;16.23;1.50;;;;;;;7.14;100.00;101308.22;5113816;28;20028;-84
2023/12/26 10:07:43;;;;;;;10.53;1.93;;;;;;;7.12;100.00;101304.88;5113624;28;20464;-84
2023/12/26 10:10:11;;;;;;;15.65;1.75;;;;;;;7.16;100.00;101303.50;5095902;28;20047;-84
2023/12/26 10:12:36;;;;;;;14.03;2.23;;;;;;;7.22;100.00;101311.88;5095716;28;20027;-84
2023/12/26 10:15:04;;;;;;;12.82;1.10;;;;;;;7.28;100.00;101303.91;5099461;28;20043;-81
2023/12/26 10:17:31;;;;;;;14.20;1.80;;;;;;;7.33;100.00;101301.47;5099898;28;20028;-82
2023/12/26 10:19:57;;;;;;;11.77;1.25;;;;;;;7.42;100.00;101315.75;5099760;28;20031;-82
2023/12/26 10:22:31;;;;;;;11.68;1.45;;;;;;;7.49;100.00;101308.59;5099631;28;20038;-83
2023/12/26 10:25:00;;;;;;;19.85;2.22;;;;;;;7.53;100.00;101318.00;5117761;28;20024;-82
2023/12/26 10:27:26;;;;;;;11.35;1.63;;;;;;;7.60;100.00;101331.59;5083320;28;20039;-82
2023/12/26 10:29:53;;;;;;;10.47;1.90;;;;;;;7.65;100.00;101325.69;5117912;28;20028;-82
2023/12/26 10:32:19;;;;;;;11.00;1.70;;;;;;;7.69;100.00;101332.34;5100153;28;20273;-83
2023/12/26 10:34:44;;;;;;;12.35;1.40;;;;;;;7.76;100.00;101333.31;5117527;28;20501;-83
2023/12/26 10:37:11;;;;;;;10.87;1.47;;;;;;;7.80;100.00;101334.63;5099410;28;20476;-87
2023/12/26 10:39:36;;;;;;;11.30;1.40;;;;;;;7.89;100.00;101333.50;5116165;28;20051;-82
2023/12/26 10:42:03;;;;;;;14.30;1.60;;;;;;;7.92;100.00;101328.75;5083269;28;20474;-82
2023/12/26 10:44:58;;;;;;;10.25;1.80;;;;;;;7.98;100.00;101328.84;5099271;28;20110;-82
2023/12/26 10:47:26;;;;;;;16.48;1.77;;;;;;;8.01;100.00;101358.19;5118200;28;20019;-82
2023/12/26 10:49:55;;;;;;;16.70;1.95;;;;;;;8.04;100.00;101327.25;5082933;28;20101;-82
2023/12/26 10:52:21;;;;;;;13.93;2.08;;;;;;;8.11;100.00;101327.38;5116633;28;20383;-83
2023/12/26 10:54:49;;;;;;;7.47;1.17;;;;;;;8.22;100.00;101294.44;5099072;28;20413;-82
2023/12/26 10:57:17;;;;;;;13.00;1.60;;;;;;;8.23;100.00;101315.88;5099898;28;20032;-82
2023/12/26 13:52:06;;;;;;;13.70;1.70;;;;;;;8.69;100.00;101492.50;5113912;28;20031;-84
2023/12/26 13:55:12;;;;;;;11.73;1.58;;;;;;;8.68;100.00;101498.91;5113070;28;20075;-83
2023/12/26 13:58:15;;;;;;;11.82;1.23;;;;;;;8.64;100.00;101506.59;5112689;28;20055;-84
2023/12/26 14:01:18;;;;;;;12.93;1.33;;;;;;;8.60;100.00;101513.38;5112679;28;20031;-83
2023/12/26 14:04:21;;;;;;;11.43;1.30;;;;;;;8.59;100.00;101509.00;5113514;28;20065;-83
2023/12/26 14:07:24;;;;;;;12.38;1.45;;;;;;;8.57;100.00;101524.59;5112611;28;20109;-84
2023/12/26 14:10:27;;;;;;;11.02;1.20;;;;;;;8.59;100.00;101517.09;5113337;28;20055;-83